createdAt,value
2022-10-07T00:07:15.218Z,68.80
2022-10-07T00:09:44.855Z,68.80
2022-10-07T00:22:07.944Z,86.50
2022-10-07T00:24:36.140Z,86.10
2022-10-07T00:27:05.849Z,69.30
2022-10-07T00:32:02.581Z,78.40
2022-10-07T00:36:59.282Z,89.60
2022-10-07T00:39:27.407Z,90.00
2022-10-07T00:41:55.420Z,90.00
2022-10-07T00:44:39.985Z,87.10
2022-10-07T00:47:13.588Z,69.70
2022-10-07T00:49:46.525Z,69.80
2022-10-07T00:54:43.763Z,82.50
2022-10-07T00:57:12.821Z,71.10
2022-10-07T00:59:42.237Z,88.40
2022-10-07T01:04:40.360Z,70.30
2022-10-07T01:12:11.178Z,70.20
2022-10-07T01:14:53.479Z,87.30
2022-10-07T01:17:28.720Z,70.20
2022-10-07T01:20:19.986Z,70.40
2022-10-07T01:22:59.691Z,70.60
2022-10-07T01:25:43.628Z,70.70
2022-10-07T01:28:18.735Z,71.10
2022-10-07T01:30:52.710Z,71.40
2022-10-07T01:33:28.868Z,71.70
2022-10-07T01:36:02.105Z,71.70
2022-10-07T01:38:33.288Z,71.90
2022-10-07T01:41:05.717Z,72.00
2022-10-07T01:43:36.392Z,72.00
2022-10-07T01:46:07.624Z,72.00
2022-10-07T01:53:49.885Z,72.60
2022-10-07T01:56:39.741Z,72.60
2022-10-07T01:59:46.720Z,82.80
2022-10-07T02:02:24.320Z,91.30
2022-10-07T02:04:59.322Z,72.90
2022-10-07T02:07:40.067Z,73.00
2022-10-07T02:10:14.476Z,89.70
2022-10-07T02:12:48.009Z,90.00
2022-10-07T02:15:22.879Z,73.10
2022-10-07T02:17:56.164Z,72.90
2022-10-07T02:20:28.281Z,72.90
2022-10-07T02:23:01.301Z,91.30
2022-10-07T02:25:36.125Z,73.00
2022-10-07T02:28:07.968Z,90.10
2022-10-07T02:30:37.869Z,73.00
2022-10-07T02:33:09.834Z,72.90
2022-10-07T02:35:42.998Z,90.00
2022-10-07T02:38:12.916Z,89.80
2022-10-07T02:40:45.577Z,73.20
2022-10-07T02:43:23.052Z,73.30
2022-10-07T02:45:59.133Z,90.00
2022-10-07T02:48:34.035Z,91.60
2022-10-07T02:51:07.513Z,73.60
2022-10-07T02:53:36.862Z,90.10
2022-10-07T02:58:37.012Z,73.70
2022-10-07T03:01:09.119Z,90.40
2022-10-07T03:03:40.218Z,73.60
2022-10-07T03:06:09.618Z,91.70
2022-10-07T03:13:36.307Z,90.00
2022-10-07T03:16:05.572Z,90.30
2022-10-07T03:21:26.133Z,73.30
2022-10-07T03:28:59.760Z,73.60
2022-10-07T03:31:29.182Z,73.70
2022-10-07T03:33:59.801Z,90.50
2022-10-07T03:36:30.621Z,73.50
2022-10-07T03:38:58.997Z,90.30
2022-10-07T03:41:27.717Z,90.40
2022-10-07T03:53:57.721Z,73.70
2022-10-07T03:59:03.353Z,91.70
2022-10-07T04:09:09.606Z,90.50
2022-10-07T04:11:40.542Z,90.10
2022-10-07T04:16:39.831Z,90.00
2022-10-07T04:21:38.525Z,81.20
2022-10-07T04:26:38.231Z,73.90
2022-10-07T04:41:51.171Z,73.90
2022-10-07T04:52:04.185Z,73.10
2022-10-07T04:57:10.030Z,74.30
2022-10-07T04:59:46.138Z,74.60
2022-10-07T05:12:20.662Z,90.10
2022-10-07T05:17:24.162Z,74.30
2022-10-07T05:27:22.087Z,73.90
2022-10-07T05:37:20.619Z,74.00
2022-10-07T05:42:22.593Z,90.20
2022-10-07T05:44:57.245Z,90.00
2022-10-07T05:57:24.634Z,75.20
2022-10-07T05:59:58.732Z,74.80
2022-10-07T06:07:52.787Z,90.30
2022-10-07T06:13:09.470Z,74.50
2022-10-07T06:28:04.611Z,90.80
2022-10-07T06:30:36.596Z,75.10
2022-10-07T06:38:06.737Z,75.50
2022-10-07T06:45:44.244Z,75.50
2022-10-07T06:50:53.462Z,75.60
2022-10-07T06:53:25.547Z,75.20
2022-10-07T06:56:01.926Z,75.50
2022-10-07T07:01:03.770Z,75.20
2022-10-07T07:11:28.527Z,74.90
2022-10-07T07:16:30.664Z,75.20
2022-10-07T07:19:01.879Z,75.00
2022-10-07T07:21:31.644Z,87.10
2022-10-07T07:29:08.012Z,77.70
2022-10-07T07:31:45.917Z,75.80
2022-10-07T07:34:15.947Z,75.30
2022-10-07T07:36:55.105Z,75.80
2022-10-07T07:47:15.668Z,75.10
2022-10-07T07:49:44.844Z,75.50
2022-10-07T07:52:18.461Z,90.90
2022-10-07T08:02:23.801Z,76.60
2022-10-07T08:09:55.250Z,79.40
2022-10-07T08:17:35.095Z,75.80
2022-10-07T08:25:09.859Z,91.30
2022-10-07T08:30:15.798Z,75.30
2022-10-07T08:33:01.050Z,75.40
2022-10-07T08:42:59.539Z,75.90
2022-10-07T08:45:58.042Z,75.60
2022-10-07T08:48:33.860Z,76.60
2022-10-07T08:51:12.648Z,75.50
2022-10-07T08:56:17.467Z,75.30
2022-10-07T08:58:55.495Z,75.20
2022-10-07T09:01:36.839Z,75.00
2022-10-07T09:04:19.140Z,74.70
2022-10-07T09:06:54.262Z,74.40
2022-10-07T09:09:27.585Z,74.10
2022-10-07T09:11:57.430Z,74.10
2022-10-07T09:14:29.891Z,73.40
2022-10-07T09:17:03.195Z,72.20
2022-10-07T09:19:38.242Z,71.00
2022-10-07T09:22:13.156Z,71.00
2022-10-07T09:24:46.223Z,70.00
2022-10-07T09:27:18.691Z,70.20
2022-10-07T09:32:18.823Z,84.60
2022-10-07T09:34:48.967Z,84.30
2022-10-07T09:37:20.805Z,85.10
2022-10-07T09:39:55.407Z,68.10
2022-10-07T09:42:34.648Z,68.40
2022-10-07T09:45:05.181Z,87.30
2022-10-07T09:47:40.009Z,83.80
2022-10-07T09:50:36.491Z,66.60
2022-10-07T09:53:06.228Z,67.30
2022-10-07T09:55:41.194Z,86.50
2022-10-07T09:58:20.185Z,67.70
2022-10-07T10:00:49.829Z,67.60
2022-10-07T10:03:19.680Z,87.10
2022-10-07T10:05:58.601Z,67.50
2022-10-07T10:08:30.039Z,67.80
2022-10-07T10:10:59.556Z,66.30
2022-10-07T10:13:33.624Z,82.40
2022-10-07T10:16:03.167Z,81.70
2022-10-07T10:18:37.920Z,81.80
2022-10-07T10:21:30.670Z,65.60
2022-10-07T10:24:00.343Z,66.30
2022-10-07T10:27:01.614Z,87.20
2022-10-07T10:29:47.503Z,66.00
2022-10-07T10:32:41.982Z,65.20
2022-10-07T10:35:16.941Z,81.00
2022-10-07T10:38:02.518Z,65.00
2022-10-07T10:40:37.036Z,80.90
2022-10-07T10:43:18.901Z,64.00
2022-10-07T10:46:10.868Z,80.10
2022-10-07T10:48:46.478Z,63.20
2022-10-07T10:51:34.063Z,62.80
2022-10-07T10:54:21.891Z,61.70
2022-10-07T10:56:55.806Z,60.00
2022-10-07T10:59:48.298Z,60.60
2022-10-07T11:02:38.084Z,60.20
2022-10-07T11:05:13.419Z,59.90
2022-10-07T11:07:48.101Z,59.30
2022-10-07T11:10:22.979Z,58.20
2022-10-07T11:12:57.217Z,58.20
2022-10-07T11:15:29.883Z,71.80
2022-10-07T11:18:02.832Z,56.30
2022-10-07T11:20:40.992Z,55.50
2022-10-07T11:23:20.596Z,56.00
2022-10-07T11:25:57.259Z,53.60
2022-10-07T11:28:40.534Z,53.60
2022-10-07T11:31:15.847Z,68.50
2022-10-07T11:33:51.582Z,51.00
2022-10-07T11:36:23.801Z,50.40
2022-10-07T11:39:00.523Z,64.50
2022-10-07T11:41:34.400Z,63.40
2022-10-07T11:44:08.482Z,50.20
2022-10-07T11:46:47.086Z,63.10
2022-10-07T11:49:23.583Z,47.50
2022-10-07T11:52:00.509Z,46.80
2022-10-07T11:54:31.709Z,47.60
2022-10-07T11:57:03.474Z,46.60
2022-10-07T11:59:48.262Z,58.60
2022-10-07T12:02:43.727Z,56.30
2022-10-07T12:05:50.032Z,43.50
2022-10-07T12:08:35.686Z,56.00
2022-10-07T12:11:46.557Z,55.00
2022-10-07T12:14:43.923Z,42.80
2022-10-07T12:17:28.207Z,42.90
2022-10-07T12:20:33.826Z,53.90
2022-10-07T12:23:50.736Z,42.30
2022-10-07T12:26:53.805Z,42.70
2022-10-07T12:29:49.285Z,52.00
2022-10-07T12:32:56.172Z,52.00
2022-10-07T12:35:54.779Z,42.00
2022-10-07T12:38:28.427Z,54.20
2022-10-07T12:41:19.194Z,53.30
2022-10-07T12:43:58.388Z,54.00
2022-10-07T12:47:04.362Z,54.10
2022-10-07T12:49:59.462Z,44.80
2022-10-07T12:52:44.769Z,44.30
2022-10-07T12:55:19.426Z,44.10
2022-10-07T12:57:52.139Z,45.20
2022-10-07T13:00:24.419Z,45.90
2022-10-07T13:03:45.423Z,45.60
2022-10-07T13:06:57.600Z,45.10
2022-10-07T13:10:16.952Z,44.20
2022-10-07T13:12:54.243Z,46.90
2022-10-07T13:15:34.024Z,47.10
2022-10-07T13:18:14.266Z,46.30
2022-10-07T13:20:59.080Z,46.50
2022-10-07T13:23:30.135Z,46.40
2022-10-07T13:26:01.355Z,46.90
2022-10-07T13:28:44.959Z,48.10
2022-10-07T13:31:19.289Z,61.70
2022-10-07T13:33:49.747Z,61.40
2022-10-07T13:36:21.361Z,61.70
2022-10-07T13:38:51.094Z,62.50
2022-10-07T13:41:32.927Z,48.50
2022-10-07T13:44:07.369Z,48.30
2022-10-07T13:46:37.351Z,48.40
2022-10-07T13:49:08.728Z,62.90
2022-10-07T13:51:41.116Z,48.40
2022-10-07T13:54:19.195Z,63.40
2022-10-07T13:56:48.808Z,62.80
2022-10-07T13:59:18.495Z,49.10
2022-10-07T14:01:48.688Z,54.20
2022-10-07T14:04:25.252Z,63.80
2022-10-07T14:06:56.229Z,48.60
2022-10-07T14:09:35.358Z,63.50
2022-10-07T14:12:15.172Z,63.50
2022-10-07T14:14:46.759Z,48.60
2022-10-07T14:17:24.788Z,48.90
2022-10-07T14:19:57.594Z,49.20
2022-10-07T14:22:32.277Z,49.10
2022-10-07T14:25:04.054Z,49.00
2022-10-07T14:28:05.446Z,49.00
2022-10-07T14:30:56.445Z,49.30
2022-10-07T14:33:58.981Z,49.70
2022-10-07T14:36:30.714Z,65.50
2022-10-07T14:41:33.362Z,50.90
2022-10-07T14:44:08.169Z,51.90
2022-10-07T14:49:15.257Z,68.10
2022-10-07T14:51:46.411Z,53.90
2022-10-07T14:59:16.064Z,70.50
2022-10-07T15:01:44.212Z,70.40
2022-10-07T15:09:13.785Z,55.20
2022-10-07T15:26:40.114Z,72.60
2022-10-07T15:41:40.917Z,58.00
2022-10-07T15:44:15.907Z,57.20
2022-10-07T15:49:17.568Z,57.80
2022-10-07T15:56:45.351Z,58.10
2022-10-07T16:04:13.631Z,58.50
2022-10-07T16:11:50.239Z,59.30
2022-10-07T16:24:15.927Z,59.60
2022-10-07T16:26:46.663Z,59.50
2022-10-07T16:29:34.741Z,59.20
2022-10-07T16:42:06.719Z,59.70
2022-10-07T16:50:00.191Z,60.30
2022-10-07T16:55:41.678Z,60.60
2022-10-07T16:58:13.589Z,60.80
2022-10-07T17:00:46.541Z,60.80
2022-10-07T17:03:21.596Z,61.00
2022-10-07T17:05:56.737Z,61.00
2022-10-07T17:08:29.466Z,60.90
2022-10-07T17:11:38.795Z,61.00
2022-10-07T17:14:15.561Z,61.10
2022-10-07T17:17:05.024Z,61.10
2022-10-07T17:30:08.990Z,61.50
2022-10-07T17:32:55.339Z,61.30
2022-10-07T17:35:32.647Z,61.60
2022-10-07T17:40:30.381Z,62.00
2022-10-07T17:43:02.218Z,61.80
2022-10-07T17:45:32.136Z,61.80
2022-10-07T17:53:15.487Z,78.70
2022-10-07T17:55:53.401Z,82.50
2022-10-07T17:58:23.260Z,62.20
2022-10-07T18:00:52.754Z,62.30
2022-10-07T18:05:53.177Z,62.40
2022-10-07T18:10:52.988Z,62.50
2022-10-07T18:16:10.483Z,79.40
2022-10-07T18:21:16.052Z,81.20
2022-10-07T18:23:56.930Z,64.70
2022-10-07T18:32:02.019Z,63.80
2022-10-07T18:34:34.711Z,64.60
2022-10-07T18:37:08.119Z,63.90
2022-10-07T18:39:48.841Z,64.00
2022-10-07T18:42:48.776Z,64.10
2022-10-07T18:51:04.490Z,64.00
2022-10-07T18:53:35.211Z,64.00
2022-10-07T18:56:08.092Z,64.60
2022-10-07T18:58:42.368Z,64.10
2022-10-07T19:01:18.085Z,63.80
2022-10-07T19:04:00.435Z,64.10
2022-10-07T19:17:36.133Z,63.80
2022-10-07T19:20:06.354Z,63.80
2022-10-07T19:22:36.281Z,63.80
2022-10-07T19:27:52.526Z,81.40
2022-10-07T19:35:19.335Z,63.90
2022-10-07T19:50:13.943Z,85.50
2022-10-07T19:52:43.635Z,64.80
2022-10-07T19:55:11.803Z,82.90
2022-10-07T20:00:12.679Z,65.40
2022-10-07T20:02:45.810Z,76.20
2022-10-07T20:07:47.834Z,65.30
2022-10-07T20:20:16.997Z,66.10
2022-10-07T20:22:49.397Z,65.90
2022-10-07T20:56:15.814Z,66.30
2022-10-07T21:08:57.463Z,87.20
2022-10-07T21:11:36.525Z,66.40
2022-10-07T21:14:07.484Z,66.40
2022-10-07T21:16:36.465Z,83.90
2022-10-07T21:19:04.911Z,67.30
2022-10-07T21:24:01.697Z,84.20
2022-10-07T21:26:31.176Z,66.70
2022-10-07T21:36:41.773Z,67.10
2022-10-07T21:41:42.723Z,67.30
2022-10-07T21:44:13.245Z,67.30
2022-10-07T21:46:45.579Z,67.30
2022-10-07T21:49:14.688Z,67.50
2022-10-07T21:51:43.848Z,68.00
2022-10-07T21:54:15.399Z,67.70
2022-10-07T21:56:46.370Z,67.70
2022-10-07T22:04:17.889Z,67.90
2022-10-07T22:07:04.502Z,68.20
2022-10-07T22:09:33.529Z,85.50
2022-10-07T22:12:03.348Z,67.80
2022-10-07T22:17:00.375Z,86.70
2022-10-07T22:24:34.945Z,68.50
2022-10-07T22:27:04.674Z,68.50
2022-10-07T22:43:14.164Z,68.70
2022-10-07T22:48:11.240Z,90.40
2022-10-07T22:55:37.221Z,88.50
2022-10-07T23:00:35.159Z,69.40
2022-10-07T23:08:01.880Z,90.30
2022-10-07T23:12:59.183Z,82.70
2022-10-07T23:15:27.244Z,87.30
2022-10-07T23:17:56.651Z,87.90
2022-10-07T23:35:17.973Z,68.90
2022-10-07T23:37:46.218Z,87.10
2022-10-07T23:45:11.905Z,69.30
2022-10-07T23:50:09.763Z,85.10
2022-10-07T23:52:39.734Z,82.00
2022-10-07T23:55:10.297Z,69.60
